Time;durP1;ratioP1;P1;durP2;ratioP2;P2;SDS_P1;SDS_P2;PMS_P1;PMS_P2;Temp;Humidity;BMP_temperature;BMP_pressure;BME280_temperature;BME280_humidity;BME280_pressure;Samples;Min_cycle;Max_cycle;Signal;HPM_P1;HPM_P2
2022/12/28 00:01:46;;;;;;;8.30;3.25;;;;;;;3.11;83.84;100595.08;1819439;79;21103;-61
2022/12/28 00:04:16;;;;;;;16.52;3.67;;;;;;;3.10;83.85;100592.52;1819505;79;21177;-61
2022/12/28 00:06:46;;;;;;;12.75;3.10;;;;;;;3.12;83.93;100590.52;1819385;79;21142;-60
2022/12/28 00:09:15;;;;;;;7.33;2.90;;;;;;;3.13;84.00;100598.49;1819561;79;21098;-61
2022/12/28 00:11:44;;;;;;;8.40;2.80;;;;;;;3.13;83.92;100604.41;1819762;79;21115;-61
2022/12/28 00:14:12;;;;;;;14.30;3.62;;;;;;;3.11;83.69;100599.64;1819533;77;21566;-60
2022/12/28 00:16:41;;;;;;;12.82;3.47;;;;;;;3.12;83.69;100617.59;1819637;79;21146;-61
2022/12/28 00:19:13;;;;;;;8.88;3.00;;;;;;;3.11;83.69;100621.30;1819534;79;21146;-61
2022/12/28 00:21:42;;;;;;;12.55;4.00;;;;;;;3.11;83.71;100617.23;1819951;79;21106;-61
2022/12/28 00:24:16;;;;;;;13.60;4.17;;;;;;;3.10;83.58;100615.53;1819546;79;21130;-61
2022/12/28 00:26:46;;;;;;;14.33;3.62;;;;;;;3.09;83.40;100609.76;1819405;79;21087;-61
2022/12/28 00:29:15;;;;;;;19.32;3.77;;;;;;;3.08;83.30;100616.17;1819764;79;21159;-61
2022/12/28 00:31:47;;;;;;;13.70;4.03;;;;;;;3.08;83.72;100614.31;1819763;77;21178;-61
2022/12/28 00:34:16;;;;;;;14.05;4.20;;;;;;;3.10;83.83;100621.79;1819564;77;21127;-60
2022/12/28 00:36:45;;;;;;;10.93;3.72;;;;;;;3.09;83.92;100621.44;1819639;79;21554;-60
2022/12/28 00:39:16;;;;;;;8.95;3.65;;;;;;;3.06;83.88;100620.37;1816400;79;21107;-61
2022/12/28 00:41:45;;;;;;;7.83;3.92;;;;;;;3.05;83.91;100625.93;1819839;79;21107;-62
2022/12/28 00:44:15;;;;;;;21.45;4.85;;;;;;;3.04;84.20;100623.72;1819621;79;21103;-61
2022/12/28 00:46:43;;;;;;;12.65;3.90;;;;;;;3.03;84.61;100633.34;1828324;78;21143;-61
2022/12/28 00:49:14;;;;;;;12.40;3.80;;;;;;;3.04;84.87;100630.49;1764595;81;21108;-62
2022/12/28 00:51:44;;;;;;;15.58;4.33;;;;;;;3.04;84.75;100631.84;1764530;81;21542;-60
2022/12/28 00:54:14;;;;;;;11.40;3.70;;;;;;;3.00;84.58;100630.42;1764884;81;21147;-61
2022/12/28 00:56:46;;;;;;;9.93;3.95;;;;;;;2.98;84.76;100638.33;1764795;81;21120;-62
2022/12/28 00:59:16;;;;;;;14.23;4.95;;;;;;;3.00;84.97;100639.89;1764804;81;21547;-60
2022/12/28 01:01:45;;;;;;;10.43;3.95;;;;;;;3.01;85.17;100636.19;1764723;81;21115;-62
2022/12/28 01:04:14;;;;;;;11.08;3.95;;;;;;;2.99;85.16;100641.39;1764664;81;21116;-61
2022/12/28 01:06:44;;;;;;;12.15;4.12;;;;;;;2.98;85.37;100639.69;1764792;81;21107;-62
2022/12/28 01:09:13;;;;;;;13.13;4.15;;;;;;;2.98;85.65;100643.74;1764747;81;21612;-63
2022/12/28 01:11:42;;;;;;;10.70;3.83;;;;;;;3.01;85.96;100637.55;1764742;81;21151;-60
2022/12/28 01:14:13;;;;;;;12.75;3.77;;;;;;;3.01;85.65;100644.81;1764836;80;21194;-61
2022/12/28 01:16:42;;;;;;;13.28;4.37;;;;;;;3.00;85.90;100639.89;1764693;81;21150;-62
2022/12/28 01:19:14;;;;;;;14.68;4.28;;;;;;;3.03;86.22;100640.11;1765057;81;21520;-61
2022/12/28 01:21:43;;;;;;;10.78;4.12;;;;;;;3.05;86.46;100631.34;1742000;81;21175;-62
2022/12/28 01:24:13;;;;;;;8.63;3.80;;;;;;;3.05;86.37;100636.26;1764844;81;21123;-63
2022/12/28 01:26:43;;;;;;;12.35;4.22;;;;;;;3.02;85.88;100645.16;1764834;81;21147;-60
2022/12/28 01:29:12;;;;;;;12.45;3.98;;;;;;;2.97;86.12;100637.48;1764756;81;21115;-60
2022/12/28 01:31:40;;;;;;;10.00;4.10;;;;;;;2.95;86.12;100645.38;1764663;81;21099;-60
2022/12/28 01:34:10;;;;;;;10.35;4.85;;;;;;;2.93;86.16;100650.94;1764750;81;21625;-61
2022/12/28 01:36:39;;;;;;;10.72;4.35;;;;;;;2.93;86.26;100652.79;1764896;81;21120;-61
2022/12/28 01:39:09;;;;;;;14.58;4.42;;;;;;;2.95;86.51;100649.44;1764810;81;21163;-60
2022/12/28 01:41:41;;;;;;;11.48;4.37;;;;;;;2.93;86.92;100652.30;1765125;80;21142;-63
2022/12/28 01:44:16;;;;;;;13.15;4.00;;;;;;;2.96;87.25;100649.80;1766702;81;21194;-60
2022/12/28 01:47:02;;;;;;;11.60;3.85;;;;;;;2.94;87.00;100651.30;1767304;81;21161;-60
2022/12/28 01:49:45;;;;;;;14.85;4.10;;;;;;;2.95;87.13;100649.44;1760812;81;21115;-60
2022/12/28 01:52:37;;;;;;;11.75;4.40;;;;;;;2.95;87.11;100642.67;1767780;81;21154;-60
2022/12/28 01:55:16;;;;;;;11.38;4.35;;;;;;;2.94;86.92;100639.61;1765005;81;21135;-62
2022/12/28 01:57:53;;;;;;;11.20;4.35;;;;;;;2.95;87.22;100639.97;1764763;81;21591;-61
2022/12/28 02:00:25;;;;;;;8.88;3.87;;;;;;;2.97;87.44;100651.01;1764661;80;21116;-61
2022/12/28 02:03:06;;;;;;;12.65;3.58;;;;;;;2.97;87.36;100647.45;1764718;81;21115;-61
2022/12/28 02:05:45;;;;;;;11.65;4.35;;;;;;;3.01;87.67;100647.52;1764727;81;21214;-62
2022/12/28 02:08:40;;;;;;;11.57;4.55;;;;;;;2.99;87.62;100642.25;1764889;81;21592;-61
2022/12/28 02:11:12;;;;;;;14.68;4.58;;;;;;;3.00;87.73;100640.39;1764790;81;21186;-61
2022/12/28 02:13:43;;;;;;;13.58;4.05;;;;;;;3.00;87.54;100645.31;1764840;80;21128;-61
2022/12/28 02:16:13;;;;;;;11.33;4.40;;;;;;;3.01;87.61;100642.11;1764640;81;21116;-61
2022/12/28 02:18:43;;;;;;;16.87;5.30;;;;;;;3.02;87.45;100650.58;1764711;81;21159;-60
2022/12/28 02:21:38;;;;;;;13.18;4.65;;;;;;;3.02;87.61;100654.64;1764712;80;21147;-61
2022/12/28 02:24:41;;;;;;;10.28;4.25;;;;;;;3.03;87.15;100648.23;1765059;81;21158;-61
2022/12/28 02:27:21;;;;;;;10.00;4.30;;;;;;;3.01;87.19;100640.25;1764844;81;21166;-62
2022/12/28 02:29:59;;;;;;;14.07;4.45;;;;;;;3.01;86.97;100647.02;1764693;81;21507;-62
2022/12/28 02:33:04;;;;;;;10.95;4.35;;;;;;;3.01;86.97;100650.22;1764947;81;21601;-61
2022/12/28 02:35:44;;;;;;;9.05;4.17;;;;;;;3.02;87.24;100660.05;1764696;81;21135;-61
2022/12/28 02:38:27;;;;;;;12.45;4.17;;;;;;;3.05;87.34;100654.35;1764811;81;21156;-61
2022/12/28 02:41:20;;;;;;;13.18;5.20;;;;;;;3.04;87.24;100655.35;1765027;81;21539;-61
2022/12/28 02:43:49;;;;;;;11.43;4.37;;;;;;;3.04;87.38;100665.68;1764774;81;21515;-62
2022/12/28 02:52:36;;;;;;;8.65;3.47;;;;;;;3.07;87.85;100671.30;1781464;80;21110;-60
2022/12/28 02:58:52;;;;;;;13.15;4.72;;;;;;;3.07;87.76;100672.16;1781510;80;21122;-61
2022/12/28 03:01:45;;;;;;;9.33;4.53;;;;;;;3.07;87.74;100680.78;1758942;80;21123;-62
2022/12/28 03:04:41;;;;;;;14.63;4.50;;;;;;;3.10;87.96;100681.84;1781393;80;21146;-61
2022/12/28 03:10:42;;;;;;;11.83;4.72;;;;;;;3.12;87.69;100693.39;1781290;80;21122;-61
2022/12/28 03:16:23;;;;;;;13.70;4.92;;;;;;;3.09;87.91;100694.53;1841346;77;21570;-61
2022/12/28 03:33:05;;;;;;;20.17;6.55;;;;;;;3.09;87.85;100701.30;1781317;80;21162;-62
2022/12/28 03:36:09;;;;;;;23.85;7.05;;;;;;;3.11;87.99;100697.09;1781180;80;21195;-61
2022/12/28 03:38:53;;;;;;;17.98;7.12;;;;;;;3.12;87.82;100703.72;1779650;80;21173;-59
2022/12/28 03:41:38;;;;;;;11.50;5.20;;;;;;;3.14;87.87;100703.08;1781157;80;21150;-61
2022/12/28 03:44:14;;;;;;;15.23;6.53;;;;;;;3.14;87.52;100701.73;1779097;80;21123;-60
2022/12/28 03:46:54;;;;;;;13.83;6.05;;;;;;;3.16;87.65;100705.14;1781232;80;21574;-61
2022/12/28 03:49:23;;;;;;;11.43;4.87;;;;;;;3.18;87.77;100706.36;1766368;80;21111;-61
2022/12/28 03:51:52;;;;;;;14.87;5.22;;;;;;;3.21;87.73;100699.80;1764830;81;21589;-61
2022/12/28 03:54:22;;;;;;;12.80;4.47;;;;;;;3.22;87.83;100703.72;1764720;81;21115;-60
2022/12/28 03:56:51;;;;;;;14.47;4.95;;;;;;;3.21;87.60;100709.28;1764649;80;21107;-61
2022/12/28 03:59:21;;;;;;;10.88;4.67;;;;;;;3.23;87.75;100707.28;1764537;80;21115;-62
2022/12/28 04:01:52;;;;;;;9.10;4.60;;;;;;;3.21;87.53;100708.78;1764653;81;21144;-61
2022/12/28 04:04:21;;;;;;;11.33;4.83;;;;;;;3.20;87.50;100713.84;1741240;81;21243;-62
2022/12/28 04:06:50;;;;;;;22.35;6.37;;;;;;;3.18;87.50;100718.53;1764782;81;21186;-61
2022/12/28 04:09:21;;;;;;;13.38;5.00;;;;;;;3.18;87.66;100718.53;1764686;81;21139;-61
2022/12/28 04:11:51;;;;;;;9.68;4.35;;;;;;;3.18;87.68;100719.39;1764685;80;21159;-61
2022/12/28 04:14:21;;;;;;;9.03;3.98;;;;;;;3.18;87.39;100721.25;1763988;81;21108;-61
2022/12/28 04:16:53;;;;;;;8.40;4.00;;;;;;;3.16;87.09;100721.39;1764686;81;21151;-61
2022/12/28 04:19:23;;;;;;;9.20;4.17;;;;;;;3.15;87.20;100718.83;1764578;81;21116;-61
2022/12/28 04:21:52;;;;;;;11.38;4.90;;;;;;;3.14;87.22;100716.61;1764582;81;21167;-61
2022/12/28 04:24:21;;;;;;;13.75;4.95;;;;;;;3.15;87.07;100726.45;1764645;81;21515;-59
2022/12/28 04:26:50;;;;;;;11.35;4.53;;;;;;;3.18;87.28;100734.78;1764584;80;21119;-61
2022/12/28 04:29:20;;;;;;;12.45;4.22;;;;;;;3.19;87.08;100737.84;1765085;81;21159;-61
2022/12/28 04:31:51;;;;;;;10.13;4.55;;;;;;;3.19;86.78;100731.94;1761673;81;21171;-61
2022/12/28 04:34:21;;;;;;;7.37;3.65;;;;;;;3.15;86.26;100736.42;1764809;81;21186;-62
2022/12/28 04:36:55;;;;;;;7.03;4.30;;;;;;;3.17;86.46;100735.78;1764633;81;21186;-62
2022/12/28 04:39:25;;;;;;;11.55;4.25;;;;;;;3.20;86.69;100732.79;1764799;80;21239;-60
2022/12/28 04:41:54;;;;;;;11.95;4.30;;;;;;;3.21;86.89;100733.64;1764732;81;21163;-61
2022/12/28 04:44:23;;;;;;;8.65;4.33;;;;;;;3.23;86.99;100746.55;1764831;81;21183;-59
2022/12/28 04:46:52;;;;;;;11.00;5.20;;;;;;;3.23;86.96;100743.84;1764615;81;21119;-61
2022/12/28 04:49:21;;;;;;;7.70;4.45;;;;;;;3.24;87.26;100751.81;1764497;81;21241;-61
2022/12/28 04:51:50;;;;;;;12.82;5.28;;;;;;;3.26;87.51;100750.35;1764786;81;21590;-61
2022/12/28 04:54:20;;;;;;;7.53;4.00;;;;;;;3.22;87.71;100752.45;1764735;81;21119;-61
2022/12/28 04:56:49;;;;;;;8.73;4.30;;;;;;;3.18;88.13;100752.38;1764818;80;21131;-61
2022/12/28 04:59:18;;;;;;;7.83;4.22;;;;;;;3.19;88.58;100756.80;1764598;81;21123;-60
2022/12/28 05:01:47;;;;;;;8.15;4.40;;;;;;;3.14;88.80;100751.81;1764615;81;21155;-62
2022/12/28 05:04:16;;;;;;;10.30;4.78;;;;;;;3.12;89.15;100757.01;1764633;80;21166;-60
2022/12/28 05:06:45;;;;;;;8.15;4.20;;;;;;;3.12;89.53;100758.36;1764602;81;21128;-61
2022/12/28 05:09:14;;;;;;;8.50;5.17;;;;;;;3.10;89.63;100759.86;1764894;81;21147;-61
2022/12/28 05:11:43;;;;;;;11.10;5.47;;;;;;;3.09;89.70;100762.70;1764578;81;21539;-61
2022/12/28 05:14:12;;;;;;;12.25;5.17;;;;;;;3.06;89.99;100754.87;1764524;81;21170;-61
2022/12/28 05:16:40;;;;;;;10.00;5.12;;;;;;;3.04;90.07;100760.42;1764908;80;21181;-61
2022/12/28 05:19:10;;;;;;;8.55;4.87;;;;;;;3.01;90.22;100763.91;1764875;81;21535;-62
2022/12/28 05:21:41;;;;;;;9.18;5.30;;;;;;;3.01;90.46;100768.82;1764636;81;21131;-61
2022/12/28 05:24:10;;;;;;;11.35;5.15;;;;;;;2.99;90.54;100760.48;1764730;81;21515;-63
2022/12/28 05:26:40;;;;;;;11.40;4.83;;;;;;;2.96;90.66;100771.59;1764597;81;21581;-61
2022/12/28 05:29:09;;;;;;;8.08;4.40;;;;;;;2.95;90.73;100778.86;1764612;81;21146;-62
2022/12/28 05:31:38;;;;;;;10.55;4.42;;;;;;;2.95;90.94;100772.09;1764728;81;21202;-62
2022/12/28 05:34:07;;;;;;;9.03;4.60;;;;;;;2.95;90.98;100772.59;1764568;81;21124;-61
2022/12/28 05:36:38;;;;;;;8.98;4.08;;;;;;;2.95;90.99;100791.03;1764793;81;21119;-61
2022/12/28 05:39:10;;;;;;;8.25;4.20;;;;;;;2.94;91.02;100789.33;1764551;81;21138;-61
2022/12/28 05:41:41;;;;;;;8.30;4.17;;;;;;;2.93;91.20;100802.50;1766176;81;21143;-60
2022/12/28 05:44:10;;;;;;;10.78;4.33;;;;;;;2.95;91.34;100799.66;1767121;81;21154;-62
2022/12/28 05:46:38;;;;;;;6.70;4.22;;;;;;;2.94;91.16;100799.30;1767627;80;21167;-61
2022/12/28 05:49:08;;;;;;;9.68;4.97;;;;;;;2.94;91.13;100797.45;1775815;81;21147;-60
2022/12/28 05:51:37;;;;;;;8.60;4.75;;;;;;;2.95;91.14;100807.28;1777719;81;21158;-62
2022/12/28 05:54:08;;;;;;;6.78;4.12;;;;;;;2.95;91.25;100807.77;1776319;81;21170;-61
2022/12/28 05:56:37;;;;;;;11.20;4.67;;;;;;;2.98;91.23;100811.55;1775611;80;21115;-62
2022/12/28 05:59:07;;;;;;;10.10;4.97;;;;;;;2.97;91.15;100821.52;1775583;81;21186;-62
2022/12/28 06:01:38;;;;;;;10.40;5.03;;;;;;;3.00;91.37;100823.10;1775703;81;21123;-61
2022/12/28 06:04:12;;;;;;;11.53;5.37;;;;;;;3.02;91.45;100823.81;1775779;80;21091;-62
2022/12/28 06:06:41;;;;;;;15.30;6.28;;;;;;;3.07;91.56;100831.02;1775580;81;21127;-62
2022/12/28 06:09:10;;;;;;;11.65;5.62;;;;;;;3.08;91.48;100828.67;1775524;81;21178;-61
2022/12/28 06:11:39;;;;;;;16.37;6.08;;;;;;;3.09;91.20;100823.13;1775494;81;21198;-63
2022/12/28 06:14:08;;;;;;;13.50;5.50;;;;;;;3.06;90.88;100832.02;1775623;80;21119;-61
2022/12/28 06:16:40;;;;;;;10.15;5.50;;;;;;;3.03;90.83;100838.56;1775696;81;21146;-59
2022/12/28 06:19:11;;;;;;;15.55;5.92;;;;;;;3.02;90.54;100833.30;1775683;81;21174;-62
2022/12/28 06:21:40;;;;;;;12.23;5.47;;;;;;;2.98;90.13;100842.68;1775536;81;21193;-62
2022/12/28 06:24:09;;;;;;;10.03;5.00;;;;;;;2.97;90.00;100857.21;1775756;80;21550;-62
2022/12/28 06:26:39;;;;;;;11.70;5.90;;;;;;;2.94;89.68;100856.13;1775871;81;21135;-62
2022/12/28 06:29:09;;;;;;;11.50;6.50;;;;;;;2.92;89.33;100850.00;1775504;81;21127;-62
2022/12/28 06:31:40;;;;;;;12.73;6.53;;;;;;;2.91;89.38;100860.47;1775945;81;21161;-62
2022/12/28 06:34:10;;;;;;;13.48;5.53;;;;;;;2.88;89.36;100854.83;1776049;81;21143;-64
2022/12/28 06:36:42;;;;;;;11.90;6.17;;;;;;;2.86;89.26;100861.73;1775757;81;21103;-61
2022/12/28 06:39:12;;;;;;;9.48;4.45;;;;;;;2.86;89.05;100871.20;1775701;81;21173;-62
2022/12/28 06:41:41;;;;;;;12.33;5.25;;;;;;;2.84;88.77;100878.61;1775518;81;21123;-61
2022/12/28 06:44:11;;;;;;;12.35;4.87;;;;;;;2.85;88.78;100874.91;1775803;80;21146;-64
2022/12/28 06:46:40;;;;;;;10.55;4.70;;;;;;;2.87;88.77;100884.24;1775477;81;21123;-63
2022/12/28 06:49:10;;;;;;;11.95;5.28;;;;;;;2.88;88.62;100887.31;1775562;81;21095;-64
2022/12/28 06:51:40;;;;;;;11.78;4.55;;;;;;;2.88;88.53;100889.16;1775506;80;21593;-62
2022/12/28 06:54:10;;;;;;;12.82;6.22;;;;;;;2.90;88.00;100892.09;1775619;80;21122;-61
2022/12/28 06:56:40;;;;;;;18.30;6.83;;;;;;;2.92;88.01;100898.72;1775618;81;21126;-64
2022/12/28 06:59:11;;;;;;;13.22;6.03;;;;;;;2.92;87.86;100900.06;1775946;80;21616;-62
2022/12/28 07:01:43;;;;;;;19.05;6.40;;;;;;;2.95;87.84;100898.44;1775661;81;21151;-60
2022/12/28 07:04:11;;;;;;;13.08;5.55;;;;;;;2.95;87.76;100901.15;1775566;80;21119;-62
2022/12/28 07:06:42;;;;;;;15.40;5.42;;;;;;;2.99;87.82;100904.80;1775802;81;21159;-62
2022/12/28 07:09:14;;;;;;;10.98;4.60;;;;;;;3.00;87.22;100898.39;1775791;80;21577;-62
2022/12/28 07:11:43;;;;;;;7.00;4.65;;;;;;;3.02;86.21;100905.02;1775733;81;21111;-63
2022/12/28 07:14:12;;;;;;;10.05;4.33;;;;;;;3.00;85.25;100909.72;1775444;81;21158;-62
2022/12/28 07:16:42;;;;;;;8.08;3.83;;;;;;;3.02;85.37;100907.23;1775627;81;21832;-63
2022/12/28 07:19:11;;;;;;;13.35;5.10;;;;;;;3.05;85.45;100912.88;1775515;81;21534;-63
2022/12/28 07:21:40;;;;;;;13.50;4.80;;;;;;;3.08;85.67;100908.04;1775533;81;21747;-63
2022/12/28 07:24:10;;;;;;;14.95;5.75;;;;;;;3.12;85.81;100910.83;1775479;80;21138;-63
2022/12/28 07:26:39;;;;;;;13.18;5.30;;;;;;;3.12;85.54;100912.19;1775594;80;21616;-62
2022/12/28 07:29:08;;;;;;;11.22;4.50;;;;;;;3.14;85.51;100914.26;1775462;81;21095;-62
2022/12/28 07:31:38;;;;;;;9.60;4.37;;;;;;;3.16;85.41;100917.69;1775460;80;21210;-63
2022/12/28 07:34:14;;;;;;;13.98;4.92;;;;;;;3.16;84.69;100918.18;1775581;80;21158;-62
2022/12/28 07:36:43;;;;;;;12.30;4.62;;;;;;;3.16;84.71;100912.77;1775533;80;21162;-64
2022/12/28 07:39:12;;;;;;;9.83;4.67;;;;;;;3.18;84.91;100914.84;1775890;81;21206;-64
2022/12/28 07:41:41;;;;;;;14.33;4.80;;;;;;;3.23;85.02;100910.36;1775532;81;21178;-62
2022/12/28 07:44:10;;;;;;;14.75;5.67;;;;;;;3.26;84.68;100921.81;1775479;81;21158;-64
2022/12/28 07:46:39;;;;;;;9.85;4.30;;;;;;;3.28;84.43;100915.76;1775772;81;21184;-62
2022/12/28 07:49:10;;;;;;;11.12;4.25;;;;;;;3.27;83.94;100917.25;1752950;80;21186;-63
2022/12/28 07:51:39;;;;;;;13.05;5.08;;;;;;;3.31;83.86;100925.45;1772673;81;21554;-62
2022/12/28 07:54:09;;;;;;;8.70;4.42;;;;;;;3.37;84.04;100933.89;1772817;80;21194;-61
2022/12/28 07:56:38;;;;;;;14.03;4.40;;;;;;;3.39;83.98;100933.75;1773110;80;21189;-64
2022/12/28 07:59:12;;;;;;;15.30;4.45;;;;;;;3.40;83.50;100932.25;1773128;81;21170;-63
2022/12/28 08:01:43;;;;;;;13.03;3.95;;;;;;;3.43;82.99;100937.89;1772794;80;21142;-64
2022/12/28 08:04:14;;;;;;;11.85;3.98;;;;;;;3.52;83.43;100929.43;1772885;81;21561;-61
2022/12/28 08:06:45;;;;;;;10.72;4.20;;;;;;;3.70;82.68;100932.67;1772823;80;21138;-62
2022/12/28 08:09:16;;;;;;;8.53;4.10;;;;;;;3.87;82.36;100940.61;1772806;80;21115;-63
2022/12/28 08:11:47;;;;;;;11.70;4.25;;;;;;;4.00;81.76;100939.86;1772979;80;21119;-62
2022/12/28 08:14:16;;;;;;;17.05;5.15;;;;;;;4.05;80.62;100937.58;1718137;81;21115;-63
2022/12/28 08:16:46;;;;;;;10.93;3.85;;;;;;;3.98;80.22;100951.84;1772787;81;21255;-64
2022/12/28 10:24:53;;;;;;;11.55;2.95;;;;;;;4.14;69.60;100989.60;1825108;78;28104;-64
2022/12/28 10:27:27;;;;;;;9.50;3.02;;;;;;;4.09;69.14;100994.59;1701011;83;21167;-65
2022/12/28 10:30:00;;;;;;;9.50;2.80;;;;;;;4.12;69.07;100999.73;1741557;82;21147;-67
2022/12/28 10:32:41;;;;;;;16.17;3.85;;;;;;;4.13;68.45;100993.31;1741560;82;21290;-65
2022/12/28 10:35:10;;;;;;;12.07;3.98;;;;;;;4.13;67.65;100992.45;1736949;82;21146;-64
2022/12/28 10:37:41;;;;;;;9.80;2.85;;;;;;;4.15;67.64;100993.17;1700494;83;21226;-64
2022/12/28 10:40:25;;;;;;;7.53;2.72;;;;;;;4.17;67.74;101002.02;1711508;82;21167;-63
2022/12/28 10:42:54;;;;;;;11.55;2.95;;;;;;;4.17;66.98;101006.59;1741885;82;21180;-63
2022/12/28 10:45:50;;;;;;;13.85;2.90;;;;;;;4.13;65.92;100996.52;1741535;82;21131;-64
2022/12/28 10:48:31;;;;;;;6.58;2.05;;;;;;;4.09;65.41;100994.59;1720248;82;21131;-63
2022/12/28 10:51:11;;;;;;;10.40;3.50;;;;;;;4.08;66.34;100994.23;1741420;82;21131;-63
2022/12/28 10:53:49;;;;;;;6.40;2.62;;;;;;;4.10;65.75;101003.59;1741567;82;21155;-66
2022/12/28 10:56:28;;;;;;;4.92;2.10;;;;;;;4.17;66.08;100999.81;1741611;82;21091;-65
2022/12/28 10:59:19;;;;;;;5.78;2.00;;;;;;;4.20;65.65;101007.66;1720202;83;21154;-63
2022/12/28 11:01:48;;;;;;;10.32;2.45;;;;;;;4.18;64.91;101003.73;1741867;82;21554;-65
2022/12/28 11:04:20;;;;;;;9.20;2.27;;;;;;;4.17;63.78;101001.16;1720292;83;21182;-65
2022/12/28 11:06:59;;;;;;;13.78;3.17;;;;;;;4.12;63.76;101004.30;1741789;82;21131;-65
2022/12/28 11:09:35;;;;;;;8.88;2.65;;;;;;;4.04;64.22;100999.58;1741561;82;21163;-66
2022/12/28 11:12:24;;;;;;;9.10;2.50;;;;;;;3.99;64.92;101010.00;1711299;82;21648;-65
2022/12/28 11:14:55;;;;;;;9.60;3.00;;;;;;;3.93;65.15;101006.48;1720607;83;21119;-65
2022/12/28 11:17:26;;;;;;;10.40;3.40;;;;;;;3.87;65.09;101008.38;1741437;82;21559;-64
2022/12/28 11:20:21;;;;;;;7.83;2.98;;;;;;;3.81;65.90;101004.86;1742515;82;21127;-65
2022/12/28 11:22:51;;;;;;;9.30;3.30;;;;;;;3.76;65.95;101005.78;1640613;87;21119;-64
2022/12/28 11:25:28;;;;;;;14.00;2.90;;;;;;;3.73;66.28;101020.97;1640050;87;21135;-63
2022/12/28 11:27:57;;;;;;;10.03;2.87;;;;;;;3.67;67.04;101029.65;1640183;87;21151;-64
2022/12/28 11:30:28;;;;;;;6.33;3.20;;;;;;;3.64;67.07;101019.94;1604008;87;21361;-65
2022/12/28 11:32:59;;;;;;;12.28;4.15;;;;;;;3.61;66.70;101013.94;1640020;87;21202;-64
2022/12/28 11:35:31;;;;;;;9.58;3.87;;;;;;;3.61;67.66;101025.64;1640011;87;21122;-63
2022/12/28 11:38:04;;;;;;;10.85;3.58;;;;;;;3.59;67.42;101019.50;1639770;87;21253;-64
2022/12/28 11:40:49;;;;;;;9.93;2.95;;;;;;;3.56;67.12;101021.62;1664227;83;21585;-65
2022/12/28 11:43:38;;;;;;;7.22;2.40;;;;;;;3.54;66.80;101016.84;1740914;82;21178;-65
2022/12/28 11:46:29;;;;;;;9.85;2.20;;;;;;;3.55;66.66;101032.11;1719856;82;21091;-61
2022/12/28 11:49:28;;;;;;;6.25;2.50;;;;;;;3.57;67.22;101033.68;1741353;82;21174;-64
2022/12/28 11:52:25;;;;;;;6.55;2.70;;;;;;;3.59;66.38;101040.31;1719883;82;21127;-65
2022/12/28 11:55:21;;;;;;;6.28;2.60;;;;;;;3.58;66.02;101035.40;1732966;82;21178;-69
2022/12/28 11:58:32;;;;;;;8.13;2.27;;;;;;;3.56;65.65;101035.17;1699902;80;21083;-63
2022/12/28 12:01:05;;;;;;;11.08;3.35;;;;;;;3.58;65.81;101041.31;1721637;82;21585;-67
2022/12/28 12:04:00;;;;;;;9.03;3.17;;;;;;;3.59;65.68;101041.17;1741348;82;21119;-69
2022/12/28 12:06:48;;;;;;;6.87;2.42;;;;;;;3.63;65.55;101045.33;1719491;83;21178;-70
2022/12/28 12:09:31;;;;;;;10.95;3.10;;;;;;;3.69;66.08;101043.92;1719862;82;21123;-69
2022/12/28 12:12:02;;;;;;;10.45;3.50;;;;;;;3.72;66.21;101051.27;1740588;82;21142;-68
2022/12/28 12:14:37;;;;;;;8.38;2.75;;;;;;;3.75;65.91;101050.14;1740761;82;21203;-68
2022/12/28 12:17:40;;;;;;;14.70;3.10;;;;;;;3.74;65.21;101040.30;1740816;82;21190;-69
2022/12/28 12:20:31;;;;;;;6.62;2.52;;;;;;;3.74;65.46;101052.49;1712526;82;21499;-68
2022/12/28 12:23:08;;;;;;;8.58;2.62;;;;;;;3.75;65.22;101054.20;1740127;82;21190;-67
2022/12/28 12:25:40;;;;;;;7.78;2.75;;;;;;;3.75;66.13;101053.71;1739409;82;21091;-68
2022/12/28 12:28:33;;;;;;;7.87;2.92;;;;;;;3.78;66.99;101058.00;1719639;83;21130;-68
2022/12/28 12:31:08;;;;;;;7.87;2.92;;;;;;;3.82;66.77;101071.63;1740907;82;21178;-67
2022/12/28 12:33:43;;;;;;;14.47;2.95;;;;;;;3.81;65.37;101069.92;1719712;83;21115;-69
2022/12/28 12:36:54;;;;;;;11.85;3.05;;;;;;;3.81;65.35;101064.50;1741028;82;21217;-68
2022/12/28 12:40:00;;;;;;;15.45;3.98;;;;;;;3.83;66.16;101065.22;1740536;82;21135;-68
2022/12/28 12:42:41;;;;;;;7.92;4.25;;;;;;;3.83;66.08;101062.50;1740363;82;21123;-67
2022/12/28 12:46:02;;;;;;;13.20;4.85;;;;;;;3.80;66.04;101065.49;1719197;83;21119;-65
2022/12/28 12:48:57;;;;;;;14.45;4.60;;;;;;;3.80;66.50;101067.70;1741043;82;21146;-66
2022/12/28 12:51:37;;;;;;;10.48;4.25;;;;;;;3.79;66.78;101073.27;1719521;83;21126;-67
2022/12/28 12:54:38;;;;;;;10.90;4.58;;;;;;;3.77;66.81;101080.67;1741294;82;21514;-65
2022/12/28 12:57:24;;;;;;;18.57;6.62;;;;;;;3.75;66.96;101083.52;1714460;82;21123;-65
2022/12/28 13:00:10;;;;;;;15.38;5.30;;;;;;;3.75;67.32;101088.95;1720069;83;21135;-67
2022/12/28 13:03:21;;;;;;;15.17;4.67;;;;;;;3.75;67.56;101093.51;1741513;82;21127;-66
2022/12/28 13:05:53;;;;;;;10.30;3.92;;;;;;;3.76;67.77;101096.58;1719960;83;21307;-67
2022/12/28 13:08:48;;;;;;;10.15;3.35;;;;;;;3.73;67.58;101091.43;1719646;83;21142;-66
2022/12/28 13:11:18;;;;;;;12.53;4.22;;;;;;;3.70;67.60;101091.20;1741129;82;21159;-67
2022/12/28 13:13:49;;;;;;;12.40;3.77;;;;;;;3.67;68.06;101096.05;1741041;82;21171;-65
2022/12/28 13:16:23;;;;;;;13.18;4.17;;;;;;;3.68;68.20;101101.83;1741133;82;21139;-66
2022/12/28 13:18:58;;;;;;;14.47;4.53;;;;;;;3.65;68.03;101096.18;1741303;82;21608;-67
2022/12/28 13:21:30;;;;;;;14.55;4.53;;;;;;;3.62;68.10;101102.37;1740953;82;21155;-67
2022/12/28 13:23:59;;;;;;;16.73;4.55;;;;;;;3.65;68.76;101106.16;1720199;83;21738;-65
2022/12/28 13:26:29;;;;;;;17.42;4.70;;;;;;;3.65;68.87;101103.45;1763032;81;21133;-66
2022/12/28 13:29:01;;;;;;;13.25;4.87;;;;;;;3.65;68.86;101114.29;1732889;83;21155;-65
2022/12/28 13:31:40;;;;;;;17.90;4.62;;;;;;;3.66;69.06;101114.66;1763018;81;21593;-66
2022/12/28 13:34:26;;;;;;;13.00;4.55;;;;;;;3.65;69.18;101110.23;1732785;83;21584;-65
2022/12/28 13:37:00;;;;;;;9.40;4.05;;;;;;;3.61;69.16;101116.91;1763156;81;21154;-66
2022/12/28 13:39:31;;;;;;;17.20;4.72;;;;;;;3.61;69.44;101114.20;1733206;83;21541;-66
2022/12/28 13:42:13;;;;;;;17.12;4.92;;;;;;;3.64;69.71;101110.72;1762191;81;21170;-66
2022/12/28 13:44:56;;;;;;;10.15;3.87;;;;;;;3.64;69.67;101110.72;1735231;81;21125;-66
2022/12/28 13:47:36;;;;;;;9.63;4.22;;;;;;;3.64;69.84;101101.73;1763685;81;21157;-65
2022/12/28 13:50:13;;;;;;;17.10;4.08;;;;;;;3.66;69.95;101107.38;1732993;83;21130;-65
2022/12/28 13:53:00;;;;;;;12.40;3.62;;;;;;;3.67;70.10;101110.45;1762683;81;21103;-67
2022/12/28 13:55:35;;;;;;;9.83;4.47;;;;;;;3.72;70.55;101107.33;1733269;83;21122;-67
2022/12/28 13:58:09;;;;;;;10.63;4.35;;;;;;;3.72;70.44;101109.55;1763376;81;21126;-66
2022/12/28 14:00:39;;;;;;;13.88;5.17;;;;;;;3.68;70.34;101103.18;1732942;82;21114;-66
2022/12/28 14:03:09;;;;;;;14.13;5.17;;;;;;;3.67;70.32;101107.74;1735562;81;21126;-67
2022/12/28 14:05:47;;;;;;;9.45;4.30;;;;;;;3.65;70.53;101103.45;1733284;83;21130;-70
2022/12/28 14:08:17;;;;;;;18.87;5.28;;;;;;;3.65;70.62;101111.09;1737719;81;21562;-69
2022/12/28 14:10:52;;;;;;;8.43;4.30;;;;;;;3.66;70.71;101118.72;1733114;83;21153;-67
2022/12/28 14:13:24;;;;;;;12.98;4.42;;;;;;;3.66;71.00;101114.66;1763591;81;21166;-69
2022/12/28 14:15:54;;;;;;;20.23;5.67;;;;;;;3.65;71.08;101125.13;1733057;83;21146;-68
2022/12/28 14:18:23;;;;;;;18.82;5.40;;;;;;;3.64;71.04;101128.34;1763233;81;21624;-68
2022/12/28 14:20:54;;;;;;;20.90;6.62;;;;;;;3.64;71.13;101120.20;1733011;83;21141;-67
2022/12/28 14:23:30;;;;;;;13.25;5.72;;;;;;;3.63;71.16;101125.77;1763510;81;21120;-68
2022/12/28 14:26:05;;;;;;;18.12;6.90;;;;;;;3.62;71.42;101126.26;1732791;82;21122;-69
2022/12/28 14:28:50;;;;;;;16.82;6.70;;;;;;;3.60;71.47;101124.68;1737293;81;21181;-69
2022/12/28 14:31:25;;;;;;;22.95;7.22;;;;;;;3.59;71.78;101122.96;1732777;83;21146;-66
2022/12/28 14:34:01;;;;;;;20.92;7.50;;;;;;;3.57;71.89;101120.38;1762952;81;21545;-67
2022/12/28 14:36:38;;;;;;;24.23;7.12;;;;;;;3.56;71.98;101117.31;1732969;83;21169;-70
2022/12/28 14:39:35;;;;;;;16.52;7.15;;;;;;;3.57;72.56;101122.23;1763419;81;21119;-65